Laurium, Michigan
Current Conditions -  °F | °C
As of 5:53 AM on Saturday 25 Oct 2014 (Local Time) from KCMX Reporting Station
Clear Clear  
Wind Chill: 53°   Ceiling: Unl
Heat Index: 53°   Visibility: 10mi
Dew Point: 36°   Wind: 17mph
Humidity: 52%   Direction: 270°W
Pressure: 29.66"   Gusts: 24mph
Location:  47.2401°N, 88.4308°W
Report Text: KCMX 250953Z AUTO 27015G21KT 10SM CLR 12/02 A2966 RMK AO2 SLP045 T01170022
Loading
Personal Weather Stations






























Interactive Weather Map
Tropical Storm Tracking
New forecast layout! Learn more

10-Day Weather Forecast

Advertisements
Track Severe Weather on mobile